createdAt,value
2022-10-12T00:00:06.474Z,9.07
2022-10-12T00:02:41.075Z,9.63
2022-10-12T00:05:08.856Z,8.50
2022-10-12T00:07:36.739Z,8.55
2022-10-12T00:10:04.969Z,9.50
2022-10-12T00:12:32.459Z,9.00
2022-10-12T00:14:59.921Z,8.57
2022-10-12T00:17:27.319Z,9.02
2022-10-12T00:19:54.720Z,8.85
2022-10-12T00:22:22.217Z,8.75
2022-10-12T00:24:49.756Z,7.70
2022-10-12T00:27:17.124Z,8.23
2022-10-12T00:29:44.698Z,8.27
2022-10-12T00:32:12.274Z,8.10
2022-10-12T00:34:39.788Z,8.13
2022-10-12T00:37:07.144Z,8.75
2022-10-12T00:39:34.759Z,8.65
2022-10-12T00:42:02.202Z,8.73
2022-10-12T00:44:43.083Z,7.90
2022-10-12T00:47:17.788Z,8.05
2022-10-12T00:49:56.724Z,8.10
2022-10-12T00:52:29.808Z,8.38
2022-10-12T00:54:57.941Z,8.55
2022-10-12T00:57:25.540Z,8.52
2022-10-12T00:59:58.703Z,8.13
2022-10-12T01:02:29.463Z,8.20
2022-10-12T01:04:57.692Z,8.07
2022-10-12T01:07:25.336Z,8.52
2022-10-12T01:09:53.063Z,7.57
2022-10-12T01:12:21.411Z,8.43
2022-10-12T01:14:49.074Z,8.68
2022-10-12T01:17:22.635Z,8.55
2022-10-12T01:20:10.163Z,8.40
2022-10-12T01:23:05.969Z,8.05
2022-10-12T01:25:45.243Z,8.02
2022-10-12T01:28:35.887Z,7.85
2022-10-12T01:31:18.436Z,8.32
2022-10-12T01:33:50.635Z,8.35
2022-10-12T01:36:27.192Z,8.20
2022-10-12T01:39:22.483Z,8.43
2022-10-12T01:41:55.432Z,8.05
2022-10-12T01:44:25.886Z,8.20
2022-10-12T01:46:55.551Z,8.10
2022-10-12T01:49:26.648Z,8.15
2022-10-12T01:52:00.956Z,8.48
2022-10-12T01:54:43.826Z,8.40
2022-10-12T01:57:56.415Z,8.23
2022-10-12T02:00:24.491Z,8.10
2022-10-12T02:03:12.782Z,7.35
2022-10-12T02:05:53.841Z,7.90
2022-10-12T02:08:33.279Z,8.25
2022-10-12T02:11:06.657Z,7.72
2022-10-12T02:13:38.613Z,8.02
2022-10-12T02:16:11.705Z,7.93
2022-10-12T02:18:43.820Z,7.10
2022-10-12T02:21:16.066Z,8.63
2022-10-12T02:23:45.669Z,8.40
2022-10-12T02:26:15.660Z,7.72
2022-10-12T02:28:45.055Z,7.93
2022-10-12T02:31:19.519Z,7.50
2022-10-12T02:33:57.284Z,8.27
2022-10-12T02:36:46.045Z,8.00
2022-10-12T02:39:36.172Z,7.45
2022-10-12T02:42:12.392Z,7.60
2022-10-12T02:44:42.047Z,7.85
2022-10-12T02:47:11.721Z,7.63
2022-10-12T02:49:40.446Z,7.68
2022-10-12T02:52:08.421Z,8.38
2022-10-12T02:54:36.657Z,7.13
2022-10-12T02:57:04.062Z,7.53
2022-10-12T02:59:31.555Z,6.80
2022-10-12T03:01:58.884Z,6.90
2022-10-12T03:04:26.346Z,8.00
2022-10-12T03:06:53.730Z,7.03
2022-10-12T03:09:21.373Z,7.25
2022-10-12T03:11:48.792Z,7.43
2022-10-12T03:14:17.461Z,7.22
2022-10-12T03:16:46.636Z,7.43
2022-10-12T03:19:15.050Z,7.00
2022-10-12T03:21:42.445Z,6.78
2022-10-12T03:24:09.951Z,6.30
2022-10-12T03:26:37.467Z,6.05
2022-10-12T03:29:05.409Z,6.65
2022-10-12T03:31:32.825Z,6.57
2022-10-12T03:34:00.561Z,6.40
2022-10-12T03:36:27.933Z,6.93
2022-10-12T03:38:55.632Z,6.65
2022-10-12T03:41:23.189Z,6.90
2022-10-12T03:43:50.629Z,7.05
2022-10-12T03:46:18.148Z,6.53
2022-10-12T03:48:45.566Z,6.88
2022-10-12T03:51:13.140Z,6.45
2022-10-12T03:53:45.184Z,6.88
2022-10-12T03:56:13.385Z,6.30
2022-10-12T03:58:40.956Z,6.78
2022-10-12T04:01:08.426Z,6.45
2022-10-12T04:03:36.596Z,6.30
2022-10-12T04:06:04.133Z,7.07
2022-10-12T04:08:31.575Z,6.68
2022-10-12T04:10:59.014Z,6.97
2022-10-12T04:13:26.398Z,7.18
2022-10-12T05:09:44.697Z,6.78
2022-10-12T05:28:12.789Z,7.17
2022-10-12T05:30:48.097Z,6.75
2022-10-12T05:56:51.692Z,6.80
2022-10-12T08:07:25.326Z,4.20
2022-10-12T08:09:52.823Z,4.20
2022-10-12T08:12:20.664Z,4.32
2022-10-12T08:14:48.191Z,4.55
2022-10-12T08:17:15.800Z,4.38
2022-10-12T08:19:43.283Z,3.83
2022-10-12T08:22:12.540Z,4.20
2022-10-12T08:24:39.957Z,4.05
2022-10-12T08:27:07.528Z,3.60
2022-10-12T08:29:35.033Z,3.50
2022-10-12T08:32:02.569Z,3.75
2022-10-12T08:34:30.978Z,3.65
2022-10-12T08:36:59.649Z,3.92
2022-10-12T08:39:27.605Z,3.63
2022-10-12T08:42:16.567Z,3.78
2022-10-12T08:45:01.664Z,4.22
2022-10-12T08:47:51.575Z,3.90
2022-10-12T08:50:38.603Z,3.85
2022-10-12T08:53:19.427Z,3.45
2022-10-12T08:55:47.165Z,3.60
2022-10-12T08:58:35.674Z,3.67
2022-10-12T09:01:16.631Z,3.75
2022-10-12T09:03:55.609Z,3.40
2022-10-12T09:06:30.125Z,4.00
2022-10-12T09:09:03.408Z,3.33
2022-10-12T09:11:58.833Z,3.85
2022-10-12T09:14:30.913Z,3.70
2022-10-12T09:17:02.615Z,3.70
2022-10-12T09:19:42.025Z,3.38
2022-10-12T09:22:19.424Z,3.13
2022-10-12T09:24:49.978Z,3.60
2022-10-12T09:27:20.542Z,3.40
2022-10-12T09:29:52.311Z,3.42
2022-10-12T09:32:40.705Z,3.83
2022-10-12T09:35:13.105Z,3.80
2022-10-12T09:37:41.279Z,3.55
2022-10-12T09:40:22.200Z,3.70
2022-10-12T09:42:51.026Z,3.15
2022-10-12T09:45:20.776Z,3.40
2022-10-12T09:48:20.551Z,3.60
2022-10-12T09:51:04.225Z,3.67
2022-10-12T09:53:56.745Z,3.42
2022-10-12T09:56:36.345Z,2.90
2022-10-12T09:59:25.434Z,3.20
2022-10-12T10:02:04.217Z,3.47
2022-10-12T10:04:34.931Z,3.00
2022-10-12T10:07:22.728Z,3.00
2022-10-12T10:10:18.548Z,3.60
2022-10-12T10:13:03.004Z,3.22
2022-10-12T10:15:38.810Z,3.33
2022-10-12T10:18:17.846Z,3.42
2022-10-12T10:20:53.352Z,3.60
2022-10-12T10:23:33.434Z,3.83
2022-10-12T10:26:08.703Z,3.80
2022-10-12T10:28:38.678Z,3.58
2022-10-12T10:31:13.904Z,3.50
2022-10-12T10:33:41.917Z,3.75
2022-10-12T10:36:20.488Z,4.13
2022-10-12T10:39:16.260Z,3.70
2022-10-12T10:44:37.596Z,4.15
2022-10-12T10:47:11.833Z,4.20
2022-10-12T10:50:00.561Z,4.55
2022-10-12T10:52:36.937Z,3.80
2022-10-12T10:55:10.163Z,3.67
2022-10-12T10:57:45.279Z,3.85
2022-10-12T11:00:39.096Z,3.78
2022-10-12T11:03:31.380Z,4.03
2022-10-12T11:06:16.619Z,4.00
2022-10-12T11:11:21.165Z,4.07
2022-10-12T11:14:19.277Z,5.93
2022-10-12T11:17:01.753Z,3.70
2022-10-12T11:19:42.311Z,3.90
2022-10-12T11:22:19.233Z,4.68
2022-10-12T11:25:02.177Z,4.80
2022-10-12T11:27:40.947Z,5.07
2022-10-12T11:30:17.854Z,4.57
2022-10-12T11:33:03.223Z,4.70
2022-10-12T11:35:40.288Z,4.72
2022-10-12T11:38:22.583Z,4.60
2022-10-12T11:41:31.128Z,4.47
2022-10-12T11:44:20.609Z,3.70
2022-10-12T11:47:00.680Z,4.47
2022-10-12T11:49:46.707Z,3.90
2022-10-12T11:52:15.375Z,4.97
2022-10-12T11:55:05.351Z,4.30
2022-10-12T11:57:37.364Z,3.78
2022-10-12T12:00:19.513Z,3.88
2022-10-12T12:02:55.808Z,3.88
2022-10-12T12:05:23.461Z,3.60
2022-10-12T12:07:53.878Z,3.92
2022-10-12T12:10:37.151Z,4.50
2022-10-12T12:13:13.441Z,3.70
2022-10-12T12:15:43.481Z,3.58
2022-10-12T12:18:18.754Z,4.00
2022-10-12T12:20:49.069Z,4.03
2022-10-12T12:23:29.455Z,3.47
2022-10-12T12:26:16.305Z,3.85
2022-10-12T12:28:49.977Z,3.13
2022-10-12T12:31:23.522Z,2.88
2022-10-12T12:34:02.361Z,2.92
2022-10-12T12:36:33.833Z,3.13
2022-10-12T12:39:03.006Z,3.65
2022-10-12T12:42:00.575Z,4.07
2022-10-12T12:44:37.944Z,4.32
2022-10-12T12:47:26.074Z,3.45
2022-10-12T12:49:55.766Z,3.60
2022-10-12T12:52:34.096Z,3.33
2022-10-12T12:55:26.744Z,3.92
2022-10-12T12:58:09.605Z,3.83
2022-10-12T13:01:00.504Z,3.33
2022-10-12T13:04:00.062Z,3.30
2022-10-12T13:06:27.482Z,3.70
2022-10-12T13:09:31.720Z,3.55
2022-10-12T13:12:14.285Z,3.70
2022-10-12T13:14:59.145Z,3.30
2022-10-12T13:17:54.472Z,3.40
2022-10-12T13:20:26.938Z,3.50
2022-10-12T13:22:57.918Z,4.40
2022-10-12T13:25:32.931Z,3.55
2022-10-12T13:28:04.601Z,3.25
2022-10-12T13:30:55.908Z,3.65
2022-10-12T13:33:50.975Z,3.33
2022-10-12T13:36:23.780Z,3.67
2022-10-12T13:39:00.170Z,3.78
2022-10-12T13:41:30.537Z,4.20
2022-10-12T13:44:04.853Z,3.47
2022-10-12T13:46:45.947Z,3.88
2022-10-12T13:49:20.259Z,4.00
2022-10-12T13:51:53.320Z,3.60
2022-10-12T13:54:41.688Z,3.92
2022-10-12T13:57:42.699Z,4.22
2022-10-12T14:00:21.022Z,3.63
2022-10-12T14:02:59.518Z,3.80
2022-10-12T14:05:35.018Z,3.65
2022-10-12T14:08:11.153Z,3.50
2022-10-12T14:10:39.320Z,3.58
2022-10-12T14:13:09.477Z,3.75
2022-10-12T14:15:40.009Z,3.70
2022-10-12T14:18:50.817Z,3.63
2022-10-12T14:21:33.294Z,3.45
2022-10-12T14:24:09.869Z,4.15
2022-10-12T14:26:55.802Z,3.78
2022-10-12T14:29:40.402Z,3.92
2022-10-12T14:32:37.465Z,3.80
2022-10-12T14:35:12.673Z,3.67
2022-10-12T14:40:26.456Z,3.78
2022-10-12T14:43:15.302Z,3.63
2022-10-12T14:45:42.847Z,3.47
2022-10-12T14:48:16.512Z,3.50
2022-10-12T14:50:44.522Z,3.13
2022-10-12T14:53:13.836Z,3.70
2022-10-12T14:55:42.691Z,3.47
2022-10-12T14:58:15.624Z,3.60
2022-10-12T15:00:44.245Z,3.40
2022-10-12T15:03:12.101Z,3.22
2022-10-12T15:05:39.760Z,3.60
2022-10-12T15:08:38.344Z,3.55
2022-10-12T15:11:06.895Z,3.38
2022-10-12T15:13:38.194Z,3.55
2022-10-12T15:16:18.579Z,3.30
2022-10-12T15:18:46.406Z,3.22
2022-10-12T15:21:14.114Z,3.55
2022-10-12T15:23:42.617Z,3.70
2022-10-12T15:26:16.316Z,3.67
2022-10-12T15:28:44.418Z,3.58
2022-10-12T15:31:19.578Z,3.03
2022-10-12T15:33:47.747Z,3.50
2022-10-12T15:36:15.552Z,3.72
2022-10-12T15:38:42.995Z,3.65
2022-10-12T15:41:20.607Z,3.25
2022-10-12T15:43:51.080Z,3.47
2022-10-12T15:46:27.923Z,3.40
2022-10-12T15:48:57.871Z,3.53
2022-10-12T15:51:25.565Z,3.30
2022-10-12T15:53:56.289Z,3.45
2022-10-12T15:56:24.172Z,3.50
2022-10-12T15:58:51.897Z,3.30
2022-10-12T16:01:20.653Z,3.00
2022-10-12T16:03:49.572Z,3.92
2022-10-12T16:06:17.040Z,3.78
2022-10-12T16:08:44.504Z,3.60
2022-10-12T16:11:14.536Z,3.67
2022-10-12T16:13:47.990Z,4.20
2022-10-12T16:16:19.402Z,3.60
2022-10-12T16:18:46.904Z,3.78
2022-10-12T16:21:14.396Z,3.50
2022-10-12T16:23:42.275Z,3.70
2022-10-12T16:26:19.349Z,4.10
2022-10-12T16:28:46.961Z,3.13
2022-10-12T16:31:17.693Z,3.47
2022-10-12T16:33:50.175Z,4.05
2022-10-12T16:38:47.907Z,3.70
2022-10-12T16:41:16.697Z,3.47
2022-10-12T16:43:44.680Z,3.63
2022-10-12T16:46:36.760Z,4.15
2022-10-12T16:49:04.281Z,3.50
2022-10-12T16:51:31.887Z,4.22
2022-10-12T16:53:59.431Z,5.60
2022-10-12T16:56:27.105Z,5.13
2022-10-12T16:59:00.091Z,4.47
2022-10-12T17:01:27.632Z,4.53
2022-10-12T17:03:55.155Z,4.82
2022-10-12T17:06:27.993Z,4.40
2022-10-12T17:11:26.103Z,4.80
2022-10-12T17:13:57.189Z,5.50
2022-10-12T17:16:47.049Z,5.93
2022-10-12T17:19:32.530Z,5.78
2022-10-12T17:22:04.253Z,5.28
2022-10-12T17:24:34.512Z,5.97
2022-10-12T17:27:03.837Z,7.32
2022-10-12T17:29:32.600Z,7.88
2022-10-12T17:32:10.127Z,8.43
2022-10-12T17:34:44.904Z,8.05
2022-10-12T17:37:13.625Z,8.27
2022-10-12T17:40:00.609Z,11.52
2022-10-12T17:42:30.915Z,18.30
2022-10-12T17:44:59.755Z,17.33
2022-10-12T17:47:30.335Z,16.15
2022-10-12T17:49:57.825Z,18.17
2022-10-12T17:52:36.270Z,17.35
2022-10-12T17:55:03.986Z,16.75
2022-10-12T17:57:31.434Z,16.02
2022-10-12T18:00:02.589Z,13.85
2022-10-12T18:02:40.669Z,12.98
2022-10-12T18:05:09.640Z,11.23
2022-10-12T18:07:41.438Z,10.05
2022-10-12T18:10:09.864Z,8.93
2022-10-12T18:12:37.596Z,8.68
2022-10-12T18:15:07.527Z,7.80
2022-10-12T18:17:35.339Z,8.23
2022-10-12T18:20:05.313Z,7.82
2022-10-12T18:22:33.554Z,7.88
2022-10-12T23:24:43.824Z,7.55
2022-10-12T23:27:17.957Z,8.27
2022-10-12T23:30:44.403Z,8.32
2022-10-12T23:33:48.463Z,7.45
2022-10-12T23:45:45.493Z,7.45
2022-10-12T23:52:28.581Z,7.95
2022-10-12T23:55:07.402Z,8.05
2022-10-12T23:58:57.676Z,8.48
